Terminal Aerodrome Forecast
Issued by NWS

Home | Current Version | Previous Version | Text Only | Print | Product List | Glossary On
Versions: 1 2 3 4 5 6 7 8 9 10 11 12 13 14 15 16 17 18 19 20 21 22 23 24 25 26 27 28 29 30 31 32 33 34 35 36 37 38 39 40 41 42 43 44 45 46 47 48 49 50
000
FTUS46 KEKA 012337
TAFACV
TAF
KACV 012337Z 0200/0224 32014KT P6SM SKC
     FM020200 33006KT P6SM SCT006 BKN250
     FM020500 VRB02KT 6SM BR SCT006 BKN015 BKN250
     FM021100 VRB02KT 5SM BR BKN004 OVC015
     FM021700 31008KT P6SM SCT004 BKN015
     FM022100 31011KT P6SM SCT015 BKN035=

USA.gov is the U.S. government's official web portal to all federal, state and local government web resources and services.